• Join FlightAware (Why Join?)
  • Login
  • US Flag 
04:49AM EDT


 

Airport Tracker/Info


-or-


 

Live Flight TrackerFlight Track Log ✈ SKW6330 ✈ 17-Apr-2013 ✈ KLAX - KFAT

Flight Track Log - Related Links

Times and Time Zones

All times are in EDT time to prevent confusion due to time zone crossing. See the SKW6330 flight status page for this flight to view local times or setup timezone preferences in your user account.

Time Position Orientation Groundspeed Altitude Reporting Facility
EDT Latitude Longitude Course Direction KTS MPH feet Rate Location/Type
07:23PM 33.9500 -118.4667 338° Northwest 160 184 2,500  Level Southern California TRACON
07:24PM 33.9667 -118.5333 287° West 187 215 4,200 1,620 Climbing Southern California TRACON
07:24PM 33.9625 -118.5469 250° West 185 213 4,600 1,740 Climbing Los Angeles Center
07:25PM 33.9767 -118.6122 285° West 194 223 6,500 1,140 Climbing Los Angeles Center
07:26PM 34.1738 -118.5270 331° Northwest  Level FlightAware Approximate
07:26PM 34.0300 -118.6217 352° North 199 229 7,000  Level Los Angeles Center
07:27PM 34.2339 -118.5667 North  Level FlightAware Approximate
07:27PM 34.0947 -118.6306 354° North 213 245 7,000  Level Los Angeles Center
07:28PM 34.2990 -118.5912 338° Northwest  Level FlightAware Approximate
07:28PM 34.1514 -118.6383 354° North 209 241 8,200  Level Los Angeles Center
07:29PM 34.2022 -118.6467 352° North 188 216 10,000 1,740 Climbing Los Angeles Center
07:30PM 34.2503 -118.6514 355° North 175 201 11,900 960 Climbing Los Angeles Center
07:31PM 34.3028 -118.6578 354° North 187 215 12,000  Climbing Los Angeles Center
07:32PM 34.3633 -118.6639 355° North 214 246 12,000  Level Los Angeles Center
07:33PM 34.4358 -118.6764 352° North 218 251 12,000  Level Los Angeles Center
07:34PM 34.4922 -118.7064 336° Northwest 221 254 12,100 720 Climbing Los Angeles Center
07:36PM 34.5469 -118.7211 348° North 197 227 13,600 1,200 Climbing Los Angeles Center
07:37PM 34.5972 -118.7314 350° North 184 212 14,700 1,020 Climbing Los Angeles Center
07:38PM 34.6481 -118.7414 351° North 184 212 15,800 960 Climbing Los Angeles Center
07:39PM 34.6992 -118.7542 348° North 186 214 16,800 960 Climbing Los Angeles Center
07:40PM 34.7508 -118.7642 351° North 189 217 17,800 900 Climbing Los Angeles Center
07:41PM 34.8122 -118.7764 351° North 188 216 18,700 900 Climbing Los Angeles Center
07:42PM 34.8639 -118.7886 349° North 187 215 19,700 900 Climbing Los Angeles Center
07:43PM 34.9147 -118.7997 350° North 190 219 20,600 780 Climbing Los Angeles Center
07:44PM 34.9653 -118.8122 349° North 187 215 21,400 660 Climbing Los Angeles Center
07:45PM 35.0175 -118.8233 350° North 189 217 22,000 240 Climbing Los Angeles Center
07:46PM 35.0867 -118.8383 350° North 210 242 22,000  Level Los Angeles Center
07:47PM 35.1475 -118.8514 350° North 220 253 22,000  Level Los Angeles Center
07:48PM 35.2078 -118.8647 350° North 220 253 22,000  Level Los Angeles Center
07:49PM 35.2683 -118.8778 350° North 220 253 22,000  Level Los Angeles Center
07:50PM 35.3292 -118.8911 350° North 222 255 22,000  Level Los Angeles Center
07:51PM 35.3906 -118.9050 350° North 224 258 22,000  Level Los Angeles Center
07:52PM 35.4656 -118.9214 350° North 226 260 22,000  Level Los Angeles Center
07:53PM 35.5283 -118.9356 350° North 229 264 22,000 -120 Level Los Angeles Center
07:54PM 35.5894 -118.9497 349° North 226 260 21,800 -300 Descending Los Angeles Center
07:55PM 35.6553 -118.9642 350° North 232 267 21,400 -420 Descending Los Angeles Center
07:55PM 35.6672 -118.9672 348° North 230 265 21,300 -480 Descending Oakland Center
07:56PM 35.7483 -118.9856 350° North 237 273 20,800 -540 Descending Oakland Center
07:57PM 35.8164 -119.0003 350° North 242 278 20,200 -600 Descending Oakland Center
07:58PM 35.8861 -119.0161 350° North 248 285 19,600 -660 Descending Oakland Center
07:59PM 35.9528 -119.0400 344° North 251 289 18,900 -600 Descending Oakland Center
08:00PM 36.0156 -119.0714 338° Northwest 248 285 18,400 -600 Descending Oakland Center
08:02PM 36.0794 -119.1019 339° North 247 284 17,700 -840 Descending Oakland Center
08:03PM 36.1433 -119.1325 339° North 246 283 16,800 -1,080 Descending Oakland Center
08:04PM 36.2064 -119.1631 339° North 246 283 15,600 -1,320 Descending Oakland Center
08:05PM 36.2689 -119.1917 340° North 245 282 14,200 -1,620 Descending Oakland Center
08:06PM 36.3453 -119.2283 339° North 247 284 12,300 -1,920 Descending Oakland Center
08:07PM 36.4103 -119.2586 339° North 250 288 10,300 -1,920 Descending Oakland Center
08:08PM 36.4711 -119.3072 327° Northwest 262 302 8,500 -1,500 Descending Oakland Center
08:09PM 36.5228 -119.3700 316° Northwest 260 299 7,300 -1,080 Descending Oakland Center
08:10PM 36.5686 -119.4294 314° West 241 277 6,400 -900 Descending Oakland Center
08:11PM 36.6128 -119.4847 315° West 227 261 5,500 -900 Descending Oakland Center